Observation data for Friona on 09/11/2017      Previous  Date  Next       Current Mesonet Observations  Soil Data  Daily Summary Page  Observations in Plain Language
KFAS 110500Z 16006KT 16/10 A3028 RMK A01 T01550101  RH  071%=      5-min Rain = 0
KFAS 110505Z 16006KT 16/10 A3028 RMK A01 T01550101  RH  071%=      5-min Rain = 0
KFAS 110510Z 16005KT 15/10 A3028 RMK A01 T01540101  RH  072%=      5-min Rain = 0
KFAS 110515Z 16004KT 15/10 A3028 RMK A01 T01520100  RH  072%=      5-min Rain = 0
KFAS 110520Z 16004KT 15/10 A3028 RMK A01 T01500100  RH  073%=      5-min Rain = 0
KFAS 110525Z 16004KT 15/10 A3028 RMK A01 T01480100  RH  074%=      5-min Rain = 0
KFAS 110530Z 15004KT 15/10 A3028 RMK A01 T01480099  RH  074%=      5-min Rain = 0
KFAS 110535Z 15004KT 15/10 A3028 RMK A01 T01470099  RH  074%=      5-min Rain = 0
KFAS 110540Z 15003KT 15/10 A3028 RMK A01 T01460098  RH  074%=      5-min Rain = 0
KFAS 110545Z 15004KT 15/10 A3028 RMK A01 T01450098  RH  075%=      5-min Rain = 0
KFAS 110550Z 15004KT 15/10 A3028 RMK A01 T01450098  RH  075%=      5-min Rain = 0
KFAS 110555Z 16004KT 14/10 A3028 RMK A01 T01440099  RH  076%=      5-min Rain = 0
KFAS 110600Z 15004KT 14/10 A3028 RMK A01 T01420098  RH  076%=      5-min Rain = 0
KFAS 110605Z 15004KT 14/10 A3028 RMK A01 T01400098  RH  077%=      5-min Rain = 0
KFAS 110610Z 16004KT 14/10 A3028 RMK A01 T01390098  RH  077%=      5-min Rain = 0
KFAS 110615Z 16004KT 14/10 A3028 RMK A01 T01390098  RH  077%=      5-min Rain = 0
KFAS 110620Z 16004KT 14/10 A3028 RMK A01 T01390098  RH  077%=      5-min Rain = 0
KFAS 110625Z 17004KT 14/10 A3027 RMK A01 T01390097  RH  077%=      5-min Rain = 0
KFAS 110630Z 17004KT 13/09 A3027 RMK A01 T01340094  RH  078%=      5-min Rain = 0
KFAS 110635Z 16004KT 13/10 A3027 RMK A01 T01300095  RH  080%=      5-min Rain = 0
KFAS 110640Z 16004KT 13/09 A3027 RMK A01 T01290094  RH  081%=      5-min Rain = 0
KFAS 110645Z 17003KT 13/10 A3027 RMK A01 T01280095  RH  081%=      5-min Rain = 0
KFAS 110650Z 17003KT 13/09 A3027 RMK A01 T01280094  RH  081%=      5-min Rain = 0
KFAS 110655Z 18001KT 13/09 A3027 RMK A01 T01270093  RH  081%=      5-min Rain = 0
KFAS 110700Z 20000KT 13/09 A3027 RMK A01 T01280094  RH  081%=      5-min Rain = 0
KFAS 110705Z 20002KT 13/10 A3027 RMK A01 T01300095  RH  080%=      5-min Rain = 0
KFAS 110710Z 17004KT 13/09 A3027 RMK A01 T01330094  RH  078%=      5-min Rain = 0
KFAS 110715Z 17005KT 13/09 A3027 RMK A01 T01340093  RH  078%=      5-min Rain = 0
KFAS 110720Z 18004KT 13/09 A3027 RMK A01 T01310091  RH  078%=      5-min Rain = 0
KFAS 110725Z 19004KT 13/09 A3027 RMK A01 T01270091  RH  080%=      5-min Rain = 0
KFAS 110730Z 19004KT 13/09 A3027 RMK A01 T01250090  RH  081%=      5-min Rain = 0
KFAS 110735Z 18004KT 12/09 A3027 RMK A01 T01230090  RH  082%=      5-min Rain = 0
KFAS 110740Z 17003KT 12/09 A3027 RMK A01 T01220091  RH  082%=      5-min Rain = 0
KFAS 110745Z 17003KT 12/09 A3027 RMK A01 T01230091  RH  082%=      5-min Rain = 0
KFAS 110750Z 17003KT 13/09 A3027 RMK A01 T01250092  RH  082%=      5-min Rain = 0
KFAS 110755Z 17003KT 13/09 A3027 RMK A01 T01250090  RH  081%=      5-min Rain = 0
KFAS 110800Z 18003KT 12/09 A3027 RMK A01 T01240090  RH  081%=      5-min Rain = 0
KFAS 110805Z 18003KT 13/09 A3027 RMK A01 T01250092  RH  082%=      5-min Rain = 0
KFAS 110810Z 18004KT 13/09 A3027 RMK A01 T01250091  RH  081%=      5-min Rain = 0
KFAS 110815Z 18003KT 12/09 A3027 RMK A01 T01220089  RH  081%=      5-min Rain = 0
KFAS 110820Z 18002KT 12/09 A3027 RMK A01 T01220091  RH  083%=      5-min Rain = 0
KFAS 110825Z 19002KT 12/09 A3027 RMK A01 T01220091  RH  083%=      5-min Rain = 0
KFAS 110830Z 19002KT 12/09 A3027 RMK A01 T01210090  RH  083%=      5-min Rain = 0
KFAS 110835Z 19002KT 12/09 A3027 RMK A01 T01200089  RH  083%=      5-min Rain = 0
KFAS 110840Z 19003KT 12/09 A3027 RMK A01 T01180089  RH  084%=      5-min Rain = 0
KFAS 110845Z 20003KT 12/09 A3027 RMK A01 T01160087  RH  084%=      5-min Rain = 0
KFAS 110850Z 21003KT 11/09 A3027 RMK A01 T01140088  RH  085%=      5-min Rain = 0
KFAS 110855Z 22003KT 12/09 A3027 RMK A01 T01150091  RH  086%=      5-min Rain = 0
KFAS 110900Z 21004KT 12/09 A3027 RMK A01 T01170092  RH  086%=      5-min Rain = 0
KFAS 110905Z 21004KT 12/09 A3027 RMK A01 T01170091  RH  085%=      5-min Rain = 0
KFAS 110910Z 21004KT 12/09 A3027 RMK A01 T01160091  RH  086%=      5-min Rain = 0
KFAS 110915Z 21005KT 12/09 A3027 RMK A01 T01160091  RH  086%=      5-min Rain = 0
KFAS 110920Z 21007KT 11/09 A3027 RMK A01 T01140089  RH  086%=      5-min Rain = 0
KFAS 110925Z 21008KT 11/09 A3027 RMK A01 T01100086  RH  087%=      5-min Rain = 0
KFAS 110930Z 22008KT 11/09 A3027 RMK A01 T01090088  RH  088%=      5-min Rain = 0
KFAS 110935Z 21007KT 11/09 A3027 RMK A01 T01120091  RH  088%=      5-min Rain = 0
KFAS 110940Z 21006KT 12/09 A3027 RMK A01 T01150092  RH  087%=      5-min Rain = 0
KFAS 110945Z 21007KT 12/09 A3027 RMK A01 T01150091  RH  087%=      5-min Rain = 0
KFAS 110950Z 21006KT 12/09 A3027 RMK A01 T01150091  RH  087%=      5-min Rain = 0
KFAS 110955Z 21006KT 12/09 A3027 RMK A01 T01150091  RH  086%=      5-min Rain = 0
KFAS 111000Z 21006KT 12/09 A3027 RMK A01 T01150091  RH  086%=      5-min Rain = 0
KFAS 111005Z 22005KT 12/09 A3027 RMK A01 T01150090  RH  086%=      5-min Rain = 0
KFAS 111010Z 22004KT 12/09 A3027 RMK A01 T01150090  RH  086%=      5-min Rain = 0
KFAS 111015Z 23004KT 12/09 A3027 RMK A01 T01160090  RH  085%=      5-min Rain = 0
KFAS 111020Z 23003KT 12/09 A3027 RMK A01 T01160089  RH  085%=      5-min Rain = 0
KFAS 111025Z 23003KT 12/09 A3027 RMK A01 T01150089  RH  085%=      5-min Rain = 0
KFAS 111030Z 23003KT 12/09 A3027 RMK A01 T01150089  RH  085%=      5-min Rain = 0
KFAS 111035Z 22004KT 12/09 A3027 RMK A01 T01160088  RH  085%=      5-min Rain = 0
KFAS 111040Z 23003KT 12/09 A3027 RMK A01 T01150087  RH  084%=      5-min Rain = 0
KFAS 111045Z 24003KT 11/09 A3027 RMK A01 T01140086  RH  084%=      5-min Rain = 0
KFAS 111050Z 25003KT 11/09 A3027 RMK A01 T01120085  RH  085%=      5-min Rain = 0
KFAS 111055Z 25003KT 11/08 A3027 RMK A01 T01090084  RH  085%=      5-min Rain = 0
KFAS 111100Z 25003KT 11/08 A3027 RMK A01 T01070083  RH  087%=      5-min Rain = 0
KFAS 111105Z 25003KT 11/08 A3027 RMK A01 T01050083  RH  087%=      5-min Rain = 0
KFAS 111110Z 26003KT 10/08 A3027 RMK A01 T01040083  RH  088%=      5-min Rain = 0
KFAS 111115Z 26003KT 10/08 A3027 RMK A01 T01030082  RH  088%=      5-min Rain = 0
KFAS 111120Z 25003KT 10/08 A3027 RMK A01 T01020082  RH  089%=      5-min Rain = 0
KFAS 111125Z 25003KT 10/08 A3027 RMK A01 T01010082  RH  089%=      5-min Rain = 0
KFAS 111130Z 26003KT 10/08 A3027 RMK A01 T00990080  RH  089%=      5-min Rain = 0
KFAS 111135Z 27004KT 10/08 A3027 RMK A01 T00980081  RH  090%=      5-min Rain = 0
KFAS 111140Z 27005KT 10/08 A3027 RMK A01 T00980080  RH  090%=      5-min Rain = 0
KFAS 111145Z 26006KT 10/08 A3027 RMK A01 T00980082  RH  091%=      5-min Rain = 0
KFAS 111150Z 26006KT 10/08 A3027 RMK A01 T00990083  RH  091%=      5-min Rain = 0
KFAS 111155Z 26006KT 10/08 A3027 RMK A01 T00980083  RH  091%=      5-min Rain = 0
KFAS 111200Z 26006KT 10/08 A3027 RMK A01 T00970081  RH  091%=      5-min Rain = 0
KFAS 111205Z 26005KT 10/08 A3026 RMK A01 T00950081  RH  092%=      5-min Rain = 0
KFAS 111210Z 26004KT 10/08 A3026 RMK A01 T00960082  RH  092%=      5-min Rain = 0
KFAS 111215Z 26003KT 10/08 A3027 RMK A01 T00970082  RH  092%=      5-min Rain = 0
KFAS 111220Z 26003KT 10/08 A3027 RMK A01 T00960082  RH  092%=      5-min Rain = 0
KFAS 111225Z 27004KT 10/08 A3027 RMK A01 T00970083  RH  092%=      5-min Rain = 0
KFAS 111230Z 27005KT 10/08 A3027 RMK A01 T00970083  RH  092%=      5-min Rain = 0
KFAS 111235Z 27005KT 10/08 A3028 RMK A01 T00970082  RH  092%=      5-min Rain = 0
KFAS 111240Z 27004KT 10/08 A3028 RMK A01 T00980083  RH  092%=      5-min Rain = 0
KFAS 111245Z 26005KT 10/08 A3028 RMK A01 T00980083  RH  092%=      5-min Rain = 0
KFAS 111250Z 25006KT 10/08 A3028 RMK A01 T00970082  RH  092%=      5-min Rain = 0
KFAS 111255Z 25006KT 10/08 A3028 RMK A01 T00970083  RH  092%=      5-min Rain = 0
KFAS 111300Z 25006KT 10/09 A3028 RMK A01 T00990085  RH  093%=      5-min Rain = 0
KFAS 111305Z 26005KT 10/09 A3028 RMK A01 T01020088  RH  093%=      5-min Rain = 0
KFAS 111310Z 26005KT 10/09 A3028 RMK A01 T01040090  RH  093%=      5-min Rain = 0
KFAS 111315Z 26004KT 11/09 A3028 RMK A01 T01070093  RH  092%=      5-min Rain = 0
KFAS 111320Z 26004KT 11/10 A3028 RMK A01 T01110095  RH  091%=      5-min Rain = 0
KFAS 111325Z 26004KT 12/10 A3028 RMK A01 T01150098  RH  091%=      5-min Rain = 0
KFAS 111330Z 26004KT 12/10 A3028 RMK A01 T01180099  RH  090%=      5-min Rain = 0
KFAS 111335Z 26004KT 12/10 A3028 RMK A01 T01210101  RH  089%=      5-min Rain = 0
KFAS 111340Z 26003KT 13/10 A3028 RMK A01 T01250103  RH  088%=      5-min Rain = 0
KFAS 111345Z 26003KT 13/11 A3028 RMK A01 T01280106  RH  088%=      5-min Rain = 0
KFAS 111350Z 26004KT 13/11 A3028 RMK A01 T01330108  RH  087%=      5-min Rain = 0
KFAS 111355Z 26004KT 14/11 A3028 RMK A01 T01370109  RH  085%=      5-min Rain = 0
KFAS 111400Z 25005KT 14/11 A3028 RMK A01 T01420109  RH  082%=      5-min Rain = 0
KFAS 111405Z 25004KT 15/11 A3028 RMK A01 T01470111  RH  080%=      5-min Rain = 0
KFAS 111410Z 24005KT 15/11 A3028 RMK A01 T01530112  RH  078%=      5-min Rain = 0
KFAS 111415Z 24005KT 16/11 A3028 RMK A01 T01590111  RH  074%=      5-min Rain = 0
KFAS 111420Z 24006KT 16/11 A3028 RMK A01 T01630109  RH  072%=      5-min Rain = 0
KFAS 111425Z 25005KT 17/11 A3028 RMK A01 T01680113  RH  071%=      5-min Rain = 0
KFAS 111430Z 25006KT 17/11 A3028 RMK A01 T01710110  RH  068%=      5-min Rain = 0
KFAS 111435Z 25006KT 18/11 A3028 RMK A01 T01760112  RH  067%=      5-min Rain = 0
KFAS 111440Z 25008KT 18/11 A3028 RMK A01 T01800110  RH  065%=      5-min Rain = 0
KFAS 111445Z 25008KT 18/11 A3028 RMK A01 T01840110  RH  063%=      5-min Rain = 0
KFAS 111450Z 26006KT 19/11 A3028 RMK A01 T01880113  RH  063%=      5-min Rain = 0
KFAS 111455Z 25008G13KT 19/11 A3028 RMK A01 T01940110  RH  059%=      5-min Rain = 0
KFAS 111500Z 25009KT 20/11 A3028 RMK A01 T01990108  RH  057%=      5-min Rain = 0
KFAS 111505Z 25009KT 20/11 A3028 RMK A01 T02040108  RH  055%=      5-min Rain = 0
KFAS 111510Z 25009KT 21/11 A3028 RMK A01 T02080107  RH  053%=      5-min Rain = 0
KFAS 111515Z 25011KT 21/10 A3028 RMK A01 T02120104  RH  051%=      5-min Rain = 0
KFAS 111520Z 24009KT 22/11 A3028 RMK A01 T02170105  RH  050%=      5-min Rain = 0
KFAS 111525Z 25013KT 22/10 A3028 RMK A01 T02190102  RH  048%=      5-min Rain = 0
KFAS 111530Z 25011KT 22/10 A3028 RMK A01 T02220104  RH  048%=      5-min Rain = 0
KFAS 111535Z 25010KT 23/10 A3028 RMK A01 T02250104  RH  047%=      5-min Rain = 0
KFAS 111540Z 24011G16KT 23/10 A3028 RMK A01 T02280102  RH  045%=      5-min Rain = 0
KFAS 111545Z 26011G16KT 23/10 A3028 RMK A01 T02300100  RH  044%=      5-min Rain = 0
KFAS 111550Z 25012KT 23/10 A3028 RMK A01 T02320099  RH  044%=      5-min Rain = 0
KFAS 111555Z 25012KT 23/10 A3028 RMK A01 T02330099  RH  043%=      5-min Rain = 0
KFAS 111600Z 26011KT 24/10 A3028 RMK A01 T02360102  RH  043%=      5-min Rain = 0
KFAS 111605Z 25011KT 24/10 A3028 RMK A01 T02380102  RH  043%=      5-min Rain = 0
KFAS 111610Z 26012KT 24/10 A3028 RMK A01 T02400103  RH  043%=      5-min Rain = 0
KFAS 111615Z 26011KT 24/10 A3027 RMK A01 T02400103  RH  043%=      5-min Rain = 0
KFAS 111620Z 26010KT 24/11 A3027 RMK A01 T02410105  RH  043%=      5-min Rain = 0
KFAS 111625Z 25010KT 24/11 A3027 RMK A01 T02440105  RH  042%=      5-min Rain = 0
KFAS 111630Z 25010KT 25/11 A3027 RMK A01 T02470107  RH  042%=      5-min Rain = 0
KFAS 111635Z 25012KT 25/10 A3027 RMK A01 T02470104  RH  041%=      5-min Rain = 0
KFAS 111640Z 25010KT 25/11 A3027 RMK A01 T02500106  RH  041%=      5-min Rain = 0
KFAS 111645Z 25009KT 25/11 A3027 RMK A01 T02520106  RH  041%=      5-min Rain = 0
KFAS 111650Z 25009KT 26/11 A3027 RMK A01 T02550108  RH  040%=      5-min Rain = 0
KFAS 111655Z 25008KT 26/11 A3027 RMK A01 T02570107  RH  040%=      5-min Rain = 0
KFAS 111700Z 25009KT 26/11 A3027 RMK A01 T02590108  RH  039%=      5-min Rain = 0
KFAS 111705Z 27007KT 26/11 A3027 RMK A01 T02600105  RH  038%=      5-min Rain = 0
KFAS 111710Z 26008KT 26/11 A3027 RMK A01 T02620110  RH  039%=      5-min Rain = 0
KFAS 111715Z 28008KT 26/10 A3027 RMK A01 T02640101  RH  037%=      5-min Rain = 0
KFAS 111720Z 27007KT 26/10 A3027 RMK A01 T02640102  RH  037%=      5-min Rain = 0
KFAS 111725Z 27006KT 27/11 A3026 RMK A01 T02660105  RH  037%=      5-min Rain = 0
KFAS 111730Z 27008G13KT 27/10 A3026 RMK A01 T02670104  RH  037%=      5-min Rain = 0
KFAS 111735Z 26006KT 27/10 A3026 RMK A01 T02680101  RH  036%=      5-min Rain = 0
KFAS 111740Z 29006KT 27/10 A3026 RMK A01 T02700099  RH  035%=      5-min Rain = 0
KFAS 111745Z 28005KT 27/10 A3026 RMK A01 T02700096  RH  034%=      5-min Rain = 0
KFAS 111750Z 25006KT 27/10 A3026 RMK A01 T02710101  RH  035%=      5-min Rain = 0
KFAS 111755Z 28006KT 27/10 A3025 RMK A01 T02730104  RH  035%=      5-min Rain = 0
KFAS 111800Z 31007KT 28/10 A3025 RMK A01 T02750104  RH  035%=      5-min Rain = 0
KFAS 111805Z 31005KT 27/10 A3025 RMK A01 T02740096  RH  033%=      5-min Rain = 0
KFAS 111810Z 27006KT 28/10 A3025 RMK A01 T02750102  RH  034%=      5-min Rain = 0
KFAS 111815Z 26005KT 28/10 A3025 RMK A01 T02780101  RH  034%=      5-min Rain = 0
KFAS 111820Z 26003KT 28/10 A3025 RMK A01 T02780095  RH  032%=      5-min Rain = 0
KFAS 111825Z 28005KT 28/10 A3024 RMK A01 T02800103  RH  034%=      5-min Rain = 0
KFAS 111830Z 21004KT 28/10 A3024 RMK A01 T02810101  RH  033%=      5-min Rain = 0
KFAS 111835Z 25004KT 28/10 A3024 RMK A01 T02820097  RH  032%=      5-min Rain = 0
KFAS 111840Z 26002KT 28/09 A3024 RMK A01 T02820094  RH  031%=      5-min Rain = 0
KFAS 111845Z 28001KT 28/09 A3024 RMK A01 T02810091  RH  031%=      5-min Rain = 0
KFAS 111850Z 21002KT 28/09 A3024 RMK A01 T02840094  RH  031%=      5-min Rain = 0
KFAS 111855Z 07003KT 29/10 A3024 RMK A01 T02870096  RH  031%=      5-min Rain = 0
KFAS 111900Z 06003KT 29/09 A3024 RMK A01 T02870094  RH  031%=      5-min Rain = 0
KFAS 111905Z 05002KT 29/09 A3024 RMK A01 T02880094  RH  030%=      5-min Rain = 0
KFAS 111910Z 25003KT 29/10 A3023 RMK A01 T02890096  RH  031%=      5-min Rain = 0
KFAS 111915Z 23003KT 29/10 A3023 RMK A01 T02870098  RH  031%=      5-min Rain = 0
KFAS 111920Z 22005KT 29/10 A3023 RMK A01 T02900100  RH  031%=      5-min Rain = 0
KFAS 111925Z 19003KT 29/09 A3023 RMK A01 T02900093  RH  030%=      5-min Rain = 0
KFAS 111930Z 19004KT 29/10 A3023 RMK A01 T02910096  RH  030%=      5-min Rain = 0
KFAS 111935Z 29001KT 29/09 A3022 RMK A01 T02930094  RH  029%=      5-min Rain = 0
KFAS 111940Z 21005KT 30/10 A3022 RMK A01 T02950100  RH  030%=      5-min Rain = 0
KFAS 111945Z 22006KT 29/10 A3022 RMK A01 T02940099  RH  030%=      5-min Rain = 0
KFAS 111950Z 21005KT 30/10 A3022 RMK A01 T02960100  RH  030%=      5-min Rain = 0
KFAS 111955Z 26003KT 30/09 A3022 RMK A01 T02970094  RH  029%=      5-min Rain = 0
KFAS 112000Z 29002KT 30/09 A3021 RMK A01 T02980092  RH  028%=      5-min Rain = 0
KFAS 112005Z 25003KT 30/10 A3021 RMK A01 T02970097  RH  029%=      5-min Rain = 0
KFAS 112010Z 24005KT 30/09 A3021 RMK A01 T02980091  RH  028%=      5-min Rain = 0
KFAS 112015Z 27002KT 30/09 A3021 RMK A01 T02980085  RH  027%=      5-min Rain = 0
KFAS 112020Z 19002KT 30/09 A302 RMK A01 T02990085  RH  027%=      5-min Rain = 0
KFAS 112025Z 22001KT 30/08 A302 RMK A01 T03000080  RH  026%=      5-min Rain = 0
KFAS 112030Z 24003KT 30/08 A302 RMK A01 T03000082  RH  026%=      5-min Rain = 0
KFAS 112035Z 23005KT 30/08 A3019 RMK A01 T03010084  RH  026%=      5-min Rain = 0
KFAS 112040Z 25004KT 30/07 A3019 RMK A01 T03020071  RH  024%=      5-min Rain = 0
KFAS 112045Z 23003KT 30/08 A3019 RMK A01 T03030078  RH  025%=      5-min Rain = 0
KFAS 112050Z 21002KT 31/08 A3019 RMK A01 T03050079  RH  025%=      5-min Rain = 0
KFAS 112055Z 25003KT 31/09 A3019 RMK A01 T03070088  RH  026%=      5-min Rain = 0
KFAS 112100Z 21001KT 31/09 A3019 RMK A01 T03060086  RH  026%=      5-min Rain = 0
KFAS 112105Z 06001KT 30/08 A3019 RMK A01 T03040080  RH  025%=      5-min Rain = 0
KFAS 112110Z 09002KT 30/08 A3018 RMK A01 T03020081  RH  026%=      5-min Rain = 0
KFAS 112115Z 07003KT 30/08 A3018 RMK A01 T02990075  RH  025%=      5-min Rain = 0
KFAS 112120Z 20002KT 30/09 A3018 RMK A01 T03000086  RH  027%=      5-min Rain = 0
KFAS 112125Z 17005KT 30/09 A3018 RMK A01 T03030092  RH  028%=      5-min Rain = 0
KFAS 112130Z 19007KT 30/10 A3017 RMK A01 T03030097  RH  028%=      5-min Rain = 0
KFAS 112135Z 23003KT 30/09 A3017 RMK A01 T03010093  RH  028%=      5-min Rain = 0
KFAS 112140Z 18003KT 30/09 A3017 RMK A01 T03030093  RH  028%=      5-min Rain = 0
KFAS 112145Z 17003KT 30/09 A3017 RMK A01 T03020092  RH  028%=      5-min Rain = 0
KFAS 112150Z 22003KT 30/09 A3017 RMK A01 T03030094  RH  028%=      5-min Rain = 0
KFAS 112155Z 16002KT 31/10 A3017 RMK A01 T03050096  RH  028%=      5-min Rain = 0
KFAS 112200Z 27005KT 31/10 A3016 RMK A01 T03050097  RH  028%=      5-min Rain = 0
KFAS 112205Z 26004KT 30/09 A3016 RMK A01 T03030094  RH  028%=      5-min Rain = 0
KFAS 112210Z 30002KT 30/09 A3016 RMK A01 T03020090  RH  027%=      5-min Rain = 0
KFAS 112215Z 24004KT 30/10 A3016 RMK A01 T03040095  RH  028%=      5-min Rain = 0
KFAS 112220Z 23006KT 30/09 A3016 RMK A01 T03020093  RH  028%=      5-min Rain = 0
KFAS 112225Z 26003KT 30/09 A3016 RMK A01 T03020093  RH  028%=      5-min Rain = 0
KFAS 112230Z 27002KT 31/10 A3016 RMK A01 T03060095  RH  028%=      5-min Rain = 0
KFAS 112235Z 24004KT 31/09 A3016 RMK A01 T03050093  RH  027%=      5-min Rain = 0
KFAS 112240Z 25003KT 30/09 A3016 RMK A01 T03030087  RH  027%=      5-min Rain = 0
KFAS 112245Z 25001KT 30/09 A3016 RMK A01 T03040089  RH  027%=      5-min Rain = 0
KFAS 112250Z 20003KT 31/09 A3016 RMK A01 T03070089  RH  026%=      5-min Rain = 0
KFAS 112255Z 19004KT 30/10 A3016 RMK A01 T03030097  RH  028%=      5-min Rain = 0
KFAS 112300Z 21006KT 30/09 A3016 RMK A01 T03000092  RH  028%=      5-min Rain = 0
KFAS 112305Z 21004KT 30/09 A3016 RMK A01 T02970090  RH  028%=      5-min Rain = 0
KFAS 112310Z 18007KT 30/10 A3016 RMK A01 T02970096  RH  029%=      5-min Rain = 0
KFAS 112315Z 19005KT 30/10 A3016 RMK A01 T02960096  RH  029%=      5-min Rain = 0
KFAS 112320Z 18005KT 30/10 A3016 RMK A01 T02950095  RH  029%=      5-min Rain = 0
KFAS 112325Z 19006KT 29/09 A3016 RMK A01 T02940093  RH  029%=      5-min Rain = 0
KFAS 112330Z 18005KT 29/09 A3016 RMK A01 T02940093  RH  029%=      5-min Rain = 0
KFAS 112335Z 18006KT 29/10 A3016 RMK A01 T02920097  RH  030%=      5-min Rain = 0
KFAS 112340Z 19007KT 29/09 A3016 RMK A01 T02910094  RH  030%=      5-min Rain = 0
KFAS 112345Z 18009KT 29/10 A3015 RMK A01 T02880097  RH  031%=      5-min Rain = 0
KFAS 112350Z 18008KT 29/09 A3015 RMK A01 T02860094  RH  031%=      5-min Rain = 0
KFAS 112355Z 17007KT 29/10 A3015 RMK A01 T02860097  RH  031%=      5-min Rain = 0
KFAS 120000Z 18006KT 28/10 A3015 RMK A01 T02830102  RH  033%=      5-min Rain = 0
KFAS 120005Z 19007KT 28/10 A3015 RMK A01 T02810098  RH  032%=      5-min Rain = 0
KFAS 120010Z 18007KT 28/10 A3015 RMK A01 T02790101  RH  033%=      5-min Rain = 0
KFAS 120015Z 18007KT 28/10 A3015 RMK A01 T02760103  RH  034%=      5-min Rain = 0
KFAS 120020Z 18007KT 27/10 A3016 RMK A01 T02730103  RH  035%=      5-min Rain = 0
KFAS 120025Z 18007KT 27/10 A3016 RMK A01 T02710103  RH  036%=      5-min Rain = 0
KFAS 120030Z 18007KT 27/10 A3016 RMK A01 T02670104  RH  037%=      5-min Rain = 0
KFAS 120035Z 17006KT 27/10 A3016 RMK A01 T02650103  RH  037%=      5-min Rain = 0
KFAS 120040Z 17006KT 26/11 A3016 RMK A01 T02600107  RH  039%=      5-min Rain = 0
KFAS 120045Z 17006KT 26/11 A3016 RMK A01 T02550107  RH  040%=      5-min Rain = 0
KFAS 120050Z 16006KT 25/11 A3016 RMK A01 T02510107  RH  041%=      5-min Rain = 0
KFAS 120055Z 16006KT 25/11 A3016 RMK A01 T02500105  RH  041%=      5-min Rain = 0
KFAS 120100Z 15005KT 25/11 A3016 RMK A01 T02470108  RH  042%=      5-min Rain = 0
KFAS 120105Z 15006KT 24/11 A3016 RMK A01 T02420114  RH  045%=      5-min Rain = 0
KFAS 120110Z 16007KT 24/12 A3016 RMK A01 T02370117  RH  048%=      5-min Rain = 0
KFAS 120115Z 15007KT 23/12 A3016 RMK A01 T02330118  RH  049%=      5-min Rain = 0
KFAS 120120Z 16007KT 23/12 A3016 RMK A01 T02320120  RH  050%=      5-min Rain = 0
KFAS 120125Z 15006KT 23/12 A3016 RMK A01 T02270122  RH  052%=      5-min Rain = 0
KFAS 120130Z 15007KT 22/12 A3016 RMK A01 T02220122  RH  054%=      5-min Rain = 0
KFAS 120135Z 16007KT 22/12 A3016 RMK A01 T02180122  RH  055%=      5-min Rain = 0
KFAS 120140Z 16007KT 22/12 A3016 RMK A01 T02150122  RH  056%=      5-min Rain = 0
KFAS 120145Z 16007KT 21/12 A3017 RMK A01 T02130122  RH  057%=      5-min Rain = 0
KFAS 120150Z 16007KT 21/12 A3017 RMK A01 T02110121  RH  057%=      5-min Rain = 0
KFAS 120155Z 17007KT 21/12 A3017 RMK A01 T02080121  RH  059%=      5-min Rain = 0
KFAS 120200Z 16007KT 21/12 A3017 RMK A01 T02070120  RH  058%=      5-min Rain = 0
KFAS 120205Z 17007KT 21/12 A3017 RMK A01 T02100119  RH  057%=      5-min Rain = 0
KFAS 120210Z 17007KT 21/12 A3017 RMK A01 T02070117  RH  057%=      5-min Rain = 0
KFAS 120215Z 18007KT 20/12 A3017 RMK A01 T02040116  RH  058%=      5-min Rain = 0
KFAS 120220Z 18007KT 20/12 A3017 RMK A01 T02020117  RH  059%=      5-min Rain = 0
KFAS 120225Z 19006KT 20/12 A3017 RMK A01 T01990120  RH  061%=      5-min Rain = 0
KFAS 120230Z 19007KT 19/12 A3017 RMK A01 T01920117  RH  063%=      5-min Rain = 0
KFAS 120235Z 18006KT 19/12 A3018 RMK A01 T01900116  RH  063%=      5-min Rain = 0
KFAS 120240Z 18006KT 19/12 A3018 RMK A01 T01880115  RH  064%=      5-min Rain = 0
KFAS 120245Z 18006KT 19/12 A3018 RMK A01 T01880115  RH  064%=      5-min Rain = 0
KFAS 120250Z 19006KT 19/12 A3018 RMK A01 T01870115  RH  064%=      5-min Rain = 0
KFAS 120255Z 18007KT 19/12 A3018 RMK A01 T01860116  RH  065%=      5-min Rain = 0
KFAS 120300Z 18007KT 19/12 A3018 RMK A01 T01880116  RH  064%=      5-min Rain = 0
KFAS 120305Z 18007KT 19/12 A3018 RMK A01 T01890116  RH  064%=      5-min Rain = 0
KFAS 120310Z 18007KT 19/12 A3018 RMK A01 T01860116  RH  065%=      5-min Rain = 0
KFAS 120315Z 19006KT 18/12 A3018 RMK A01 T01840116  RH  066%=      5-min Rain = 0
KFAS 120320Z 19006KT 18/12 A3018 RMK A01 T01800115  RH  067%=      5-min Rain = 0
KFAS 120325Z 19006KT 18/12 A3018 RMK A01 T01760115  RH  068%=      5-min Rain = 0
KFAS 120330Z 18006KT 18/12 A3019 RMK A01 T01750115  RH  069%=      5-min Rain = 0
KFAS 120335Z 18005KT 18/12 A3019 RMK A01 T01760115  RH  068%=      5-min Rain = 0
KFAS 120340Z 19006KT 18/12 A3019 RMK A01 T01750115  RH  069%=      5-min Rain = 0
KFAS 120345Z 19005KT 17/11 A3019 RMK A01 T01720113  RH  069%=      5-min Rain = 0
KFAS 120350Z 19006KT 17/11 A3019 RMK A01 T01710112  RH  069%=      5-min Rain = 0
KFAS 120355Z 19007KT 17/11 A3019 RMK A01 T01730111  RH  068%=      5-min Rain = 0
KFAS 120400Z 19007KT 17/11 A3019 RMK A01 T01740112  RH  068%=      5-min Rain = 0
KFAS 120405Z 19007KT 17/11 A3019 RMK A01 T01730112  RH  069%=      5-min Rain = 0
KFAS 120410Z 19007KT 17/11 A3019 RMK A01 T01740113  RH  069%=      5-min Rain = 0
KFAS 120415Z 19007KT 17/11 A3019 RMK A01 T01740113  RH  069%=      5-min Rain = 0
KFAS 120420Z 19007KT 17/11 A3019 RMK A01 T01730114  RH  069%=      5-min Rain = 0
KFAS 120425Z 19007KT 17/12 A3019 RMK A01 T01720115  RH  070%=      5-min Rain = 0
KFAS 120430Z 19007KT 17/12 A3019 RMK A01 T01720116  RH  071%=      5-min Rain = 0
KFAS 120435Z 18007KT 17/12 A3019 RMK A01 T01720116  RH  071%=      5-min Rain = 0
KFAS 120440Z 19007KT 17/12 A3019 RMK A01 T01720116  RH  071%=      5-min Rain = 0
KFAS 120445Z 19007KT 17/12 A3019 RMK A01 T01710116  RH  071%=      5-min Rain = 0
KFAS 120450Z 19007KT 17/12 A3019 RMK A01 T01700116  RH  072%=      5-min Rain = 0
KFAS 120455Z 19007KT 17/12 A3019 RMK A01 T01680115  RH  072%=      5-min Rain = 0

Page generated in 0.0364 seconds.